Observation data for Gail on 08/14/2020      Previous  Date       Current Mesonet Observations  Soil Data  Daily Summary Page  Observations in Plain Language
KGGS 140500Z 19009KT 32/09 A2994 RMK A01 T03190086  RH  024%=      5-min Rain = 0
KGGS 140505Z 19010KT 32/09 A2994 RMK A01 T03200087  RH  024%=      5-min Rain = 0
KGGS 140510Z 19009G16KT 32/09 A2994 RMK A01 T03200088  RH  024%=      5-min Rain = 0
KGGS 140515Z 20010KT 32/09 A2994 RMK A01 T03200089  RH  025%=      5-min Rain = 0
KGGS 140520Z 20008KT 32/09 A2994 RMK A01 T03170090  RH  025%=      5-min Rain = 0
KGGS 140525Z 20008KT 31/09 A2994 RMK A01 T03140091  RH  026%=      5-min Rain = 0
KGGS 140530Z 21008KT 31/09 A2994 RMK A01 T03130091  RH  026%=      5-min Rain = 0
KGGS 140535Z 21008KT 31/09 A2994 RMK A01 T03100090  RH  026%=      5-min Rain = 0
KGGS 140540Z 21008KT 31/09 A2995 RMK A01 T03090091  RH  027%=      5-min Rain = 0
KGGS 140545Z 20009KT 31/09 A2995 RMK A01 T03100091  RH  027%=      5-min Rain = 0
KGGS 140550Z 20008KT 31/09 A2995 RMK A01 T03090092  RH  027%=      5-min Rain = 0
KGGS 140555Z 21008KT 31/09 A2995 RMK A01 T03070092  RH  027%=      5-min Rain = 0
KGGS 140600Z 21008KT 31/09 A2995 RMK A01 T03050093  RH  028%=      5-min Rain = 0
KGGS 140605Z 21008KT 30/09 A2995 RMK A01 T03040093  RH  028%=      5-min Rain = 0
KGGS 140610Z 21008KT 30/09 A2995 RMK A01 T03030093  RH  028%=      5-min Rain = 0
KGGS 140615Z 19007KT 30/09 A2995 RMK A01 T03000094  RH  029%=      5-min Rain = 0
KGGS 140620Z 19008KT 30/10 A2995 RMK A01 T03010095  RH  029%=      5-min Rain = 0
KGGS 140625Z 19007KT 30/10 A2995 RMK A01 T03010096  RH  029%=      5-min Rain = 0
KGGS 140630Z 20008KT 30/10 A2995 RMK A01 T03000096  RH  029%=      5-min Rain = 0
KGGS 140635Z 21008KT 30/10 A2995 RMK A01 T02980097  RH  030%=      5-min Rain = 0
KGGS 140640Z 20007KT 30/10 A2995 RMK A01 T02960098  RH  030%=      5-min Rain = 0
KGGS 140645Z 20007KT 30/10 A2995 RMK A01 T02960098  RH  030%=      5-min Rain = 0
KGGS 140650Z 20008KT 30/10 A2995 RMK A01 T02960099  RH  030%=      5-min Rain = 0
KGGS 140655Z 20008KT 30/10 A2995 RMK A01 T02960100  RH  031%=      5-min Rain = 0
KGGS 140700Z 20008KT 30/10 A2995 RMK A01 T02950101  RH  031%=      5-min Rain = 0
KGGS 140705Z 21008KT 29/10 A2995 RMK A01 T02940101  RH  031%=      5-min Rain = 0
KGGS 140710Z 20008KT 29/10 A2995 RMK A01 T02940102  RH  031%=      5-min Rain = 0
KGGS 140715Z 20008G13KT 29/10 A2995 RMK A01 T02940103  RH  031%=      5-min Rain = 0
KGGS 140720Z 20008KT 29/10 A2995 RMK A01 T02940103  RH  032%=      5-min Rain = 0
KGGS 140725Z 21007KT 30/10 A2995 RMK A01 T02950104  RH  032%=      5-min Rain = 0
KGGS 140730Z 21007KT 29/10 A2995 RMK A01 T02930104  RH  032%=      5-min Rain = 0
KGGS 140735Z 21006KT 29/10 A2995 RMK A01 T02900104  RH  033%=      5-min Rain = 0
KGGS 140740Z 22006KT 29/10 A2995 RMK A01 T02870104  RH  033%=      5-min Rain = 0
KGGS 140745Z 22006KT 29/10 A2995 RMK A01 T02850104  RH  033%=      5-min Rain = 0
KGGS 140750Z 22006KT 28/10 A2995 RMK A01 T02830104  RH  034%=      5-min Rain = 0
KGGS 140755Z 21006KT 28/10 A2995 RMK A01 T02840104  RH  034%=      5-min Rain = 0
KGGS 140800Z 21006KT 28/10 A2995 RMK A01 T02820104  RH  034%=      5-min Rain = 0
KGGS 140805Z 21007KT 28/10 A2995 RMK A01 T02800104  RH  035%=      5-min Rain = 0
KGGS 140810Z 21007KT 28/10 A2995 RMK A01 T02800104  RH  035%=      5-min Rain = 0
KGGS 140815Z 21006KT 28/11 A2995 RMK A01 T02790105  RH  035%=      5-min Rain = 0
KGGS 140820Z 21006KT 28/11 A2995 RMK A01 T02760105  RH  035%=      5-min Rain = 0
KGGS 140825Z 20006KT 27/11 A2995 RMK A01 T02740105  RH  036%=      5-min Rain = 0
KGGS 140830Z 20007KT 27/11 A2995 RMK A01 T02730105  RH  036%=      5-min Rain = 0
KGGS 140835Z 20007KT 27/11 A2995 RMK A01 T02740105  RH  036%=      5-min Rain = 0
KGGS 140840Z 20007KT 28/11 A2995 RMK A01 T02790106  RH  035%=      5-min Rain = 0
KGGS 140845Z 19007KT 28/11 A2995 RMK A01 T02780106  RH  035%=      5-min Rain = 0
KGGS 140850Z 19007KT 28/11 A2995 RMK A01 T02780106  RH  035%=      5-min Rain = 0
KGGS 140855Z 19006KT 28/11 A2995 RMK A01 T02750106  RH  036%=      5-min Rain = 0
KGGS 140900Z 20006KT 27/11 A2995 RMK A01 T02720106  RH  037%=      5-min Rain = 0
KGGS 140905Z 20006KT 27/11 A2995 RMK A01 T02700107  RH  037%=      5-min Rain = 0
KGGS 140910Z 20006KT 27/11 A2995 RMK A01 T02680107  RH  038%=      5-min Rain = 0
KGGS 140915Z 20006KT 26/11 A2995 RMK A01 T02640107  RH  039%=      5-min Rain = 0
KGGS 140920Z 20006KT 26/11 A2995 RMK A01 T02610107  RH  039%=      5-min Rain = 0
KGGS 140925Z 20006KT 26/11 A2995 RMK A01 T02590107  RH  040%=      5-min Rain = 0
KGGS 140930Z 20006KT 26/11 A2995 RMK A01 T02580107  RH  040%=      5-min Rain = 0
KGGS 140935Z 20006KT 26/11 A2995 RMK A01 T02560107  RH  041%=      5-min Rain = 0
KGGS 140940Z 20006KT 25/11 A2995 RMK A01 T02540107  RH  041%=      5-min Rain = 0
KGGS 140945Z 21007KT 25/11 A2995 RMK A01 T02530107  RH  041%=      5-min Rain = 0
KGGS 140950Z 21007KT 25/11 A2995 RMK A01 T02530108  RH  042%=      5-min Rain = 0
KGGS 140955Z 20007KT 25/11 A2995 RMK A01 T02530108  RH  041%=      5-min Rain = 0
KGGS 141000Z 21007KT 25/11 A2995 RMK A01 T02530108  RH  041%=      5-min Rain = 0
KGGS 141005Z 21007KT 26/11 A2995 RMK A01 T02550108  RH  041%=      5-min Rain = 0
KGGS 141010Z 21007KT 26/11 A2994 RMK A01 T02550108  RH  041%=      5-min Rain = 0
KGGS 141015Z 21007KT 26/11 A2994 RMK A01 T02560108  RH  041%=      5-min Rain = 0
KGGS 141020Z 20007KT 26/11 A2994 RMK A01 T02570108  RH  040%=      5-min Rain = 0
KGGS 141025Z 20007KT 26/11 A2995 RMK A01 T02560108  RH  041%=      5-min Rain = 0
KGGS 141030Z 20006KT 25/11 A2995 RMK A01 T02520108  RH  042%=      5-min Rain = 0
KGGS 141035Z 20007KT 25/11 A2995 RMK A01 T02490108  RH  042%=      5-min Rain = 0
KGGS 141040Z 21007KT 25/11 A2994 RMK A01 T02480108  RH  043%=      5-min Rain = 0
KGGS 141045Z 21007KT 25/11 A2994 RMK A01 T02470108  RH  043%=      5-min Rain = 0
KGGS 141050Z 21007KT 25/11 A2995 RMK A01 T02500108  RH  042%=      5-min Rain = 0
KGGS 141055Z 21006KT 25/11 A2995 RMK A01 T02500108  RH  042%=      5-min Rain = 0
KGGS 141100Z 21006KT 25/11 A2995 RMK A01 T02480108  RH  043%=      5-min Rain = 0
KGGS 141105Z 22005KT 25/11 A2995 RMK A01 T02470108  RH  043%=      5-min Rain = 0
KGGS 141110Z 22005KT 25/11 A2995 RMK A01 T02460108  RH  043%=      5-min Rain = 0
KGGS 141115Z 23005KT 24/11 A2995 RMK A01 T02440108  RH  044%=      5-min Rain = 0
KGGS 141120Z 24005KT 24/11 A2996 RMK A01 T02430107  RH  044%=      5-min Rain = 0
KGGS 141125Z 24005KT 25/11 A2996 RMK A01 T02460107  RH  043%=      5-min Rain = 0
KGGS 141130Z 23005KT 25/11 A2996 RMK A01 T02470107  RH  043%=      5-min Rain = 0
KGGS 141135Z 23005KT 25/11 A2996 RMK A01 T02450107  RH  043%=      5-min Rain = 0
KGGS 141140Z 24006KT 24/11 A2996 RMK A01 T02430107  RH  044%=      5-min Rain = 0
KGGS 141145Z 24006KT 24/11 A2996 RMK A01 T02430106  RH  044%=      5-min Rain = 0
KGGS 141150Z 23006KT 25/11 A2996 RMK A01 T02460107  RH  043%=      5-min Rain = 0
KGGS 141155Z 24006KT 25/11 A2996 RMK A01 T02470106  RH  043%=      5-min Rain = 0
KGGS 141200Z 24006KT 25/11 A2997 RMK A01 T02450105  RH  043%=      5-min Rain = 0
KGGS 141205Z 24007KT 25/11 A2997 RMK A01 T02450105  RH  043%=      5-min Rain = 0
KGGS 141210Z 24007KT 24/11 A2997 RMK A01 T02440105  RH  043%=      5-min Rain = 0
KGGS 141215Z 24007KT 24/10 A2997 RMK A01 T02430104  RH  043%=      5-min Rain = 0
KGGS 141220Z 23007KT 24/10 A2997 RMK A01 T02420104  RH  043%=      5-min Rain = 0
KGGS 141225Z 23006KT 24/10 A2997 RMK A01 T02440104  RH  043%=      5-min Rain = 0
KGGS 141230Z 22005KT 24/11 A2997 RMK A01 T02430105  RH  043%=      5-min Rain = 0
KGGS 141235Z 20003KT 24/11 A2997 RMK A01 T02410106  RH  044%=      5-min Rain = 0
KGGS 141240Z 16002KT 24/11 A2998 RMK A01 T02380109  RH  046%=      5-min Rain = 0
KGGS 141245Z 15002KT 24/11 A2998 RMK A01 T02380111  RH  046%=      5-min Rain = 0
KGGS 141250Z 17002KT 24/11 A2998 RMK A01 T02420112  RH  046%=      5-min Rain = 0
KGGS 141255Z 19003KT 25/11 A2999 RMK A01 T02460111  RH  044%=      5-min Rain = 0
KGGS 141300Z 21003KT 25/11 A2999 RMK A01 T02490110  RH  043%=      5-min Rain = 0
KGGS 141305Z 22003KT 25/11 A2999 RMK A01 T02530110  RH  042%=      5-min Rain = 0
KGGS 141310Z 22004KT 26/11 A2999 RMK A01 T02560111  RH  042%=      5-min Rain = 0
KGGS 141315Z 22005KT 26/11 A2999 RMK A01 T02610112  RH  041%=      5-min Rain = 0
KGGS 141320Z 22005KT 27/11 A2999 RMK A01 T02670112  RH  039%=      5-min Rain = 0
KGGS 141325Z 22006KT 27/11 A2999 RMK A01 T02710111  RH  038%=      5-min Rain = 0
KGGS 141330Z 21006KT 28/11 A2999 RMK A01 T02750112  RH  038%=      5-min Rain = 0
KGGS 141335Z 22007KT 28/11 A2999 RMK A01 T02770111  RH  037%=      5-min Rain = 0
KGGS 141340Z 21007KT 28/11 A30 RMK A01 T02790111  RH  037%=      5-min Rain = 0
KGGS 141345Z 21007KT 28/11 A30 RMK A01 T02820111  RH  036%=      5-min Rain = 0
KGGS 141350Z 21009KT 28/11 A30 RMK A01 T02830111  RH  036%=      5-min Rain = 0
KGGS 141355Z 21009KT 29/11 A30 RMK A01 T02850111  RH  035%=      5-min Rain = 0
KGGS 141400Z 21008KT 29/11 A30 RMK A01 T02880112  RH  035%=      5-min Rain = 0
KGGS 141405Z 22009KT 29/11 A30 RMK A01 T02910112  RH  034%=      5-min Rain = 0
KGGS 141410Z 21008KT 29/11 A30 RMK A01 T02890112  RH  035%=      5-min Rain = 0
KGGS 141415Z 21010KT 29/11 A30 RMK A01 T02890112  RH  034%=      5-min Rain = 0
KGGS 141420Z 20010KT 30/11 A30 RMK A01 T02970114  RH  033%=      5-min Rain = 0
KGGS 141425Z 20011KT 30/11 A30 RMK A01 T02990114  RH  033%=      5-min Rain = 0
KGGS 141430Z 20010G15KT 30/12 A30 RMK A01 T03000115  RH  033%=      5-min Rain = 0
KGGS 141435Z 20011KT 30/12 A30 RMK A01 T03020115  RH  033%=      5-min Rain = 0
KGGS 141440Z 21011KT 31/12 A30 RMK A01 T03080117  RH  032%=      5-min Rain = 0
KGGS 141445Z 21011KT 31/12 A2999 RMK A01 T03140119  RH  031%=      5-min Rain = 0
KGGS 141450Z 21013G18KT 32/12 A2999 RMK A01 T03170119  RH  031%=      5-min Rain = 0
KGGS 141455Z 21016G22KT 32/12 A2999 RMK A01 T03190119  RH  031%=      5-min Rain = 0
KGGS 141500Z 22015G20KT 32/12 A2999 RMK A01 T03200118  RH  030%=      5-min Rain = 0
KGGS 141505Z 22016G21KT 32/12 A2999 RMK A01 T03210118  RH  030%=      5-min Rain = 0
KGGS 141510Z 22012G18KT 33/12 A2999 RMK A01 T03270119  RH  029%=      5-min Rain = 0
KGGS 141515Z 21012G17KT 33/12 A2999 RMK A01 T03320120  RH  028%=      5-min Rain = 0
KGGS 141520Z 20014KT 33/12 A2999 RMK A01 T03300118  RH  028%=      5-min Rain = 0
KGGS 141525Z 21014KT 33/12 A2999 RMK A01 T03320118  RH  028%=      5-min Rain = 0
KGGS 141530Z 21014KT 33/12 A2999 RMK A01 T03340118  RH  028%=      5-min Rain = 0
KGGS 141535Z 20014G20KT 34/12 A2999 RMK A01 T03350118  RH  028%=      5-min Rain = 0
KGGS 141540Z 20014G19KT 34/12 A2999 RMK A01 T03350117  RH  028%=      5-min Rain = 0
KGGS 141545Z 21013KT 34/12 A2999 RMK A01 T03380116  RH  027%=      5-min Rain = 0
KGGS 141550Z 21014KT 34/12 A2999 RMK A01 T03380116  RH  027%=      5-min Rain = 0
KGGS 141555Z 20013G18KT 34/12 A2999 RMK A01 T03390117  RH  027%=      5-min Rain = 0
KGGS 141600Z 20013KT 35/12 A2999 RMK A01 T03450116  RH  026%=      5-min Rain = 0
KGGS 141605Z 21014G19KT 35/12 A2998 RMK A01 T03450116  RH  026%=      5-min Rain = 0
KGGS 141610Z 21012KT 35/12 A2998 RMK A01 T03470116  RH  026%=      5-min Rain = 0
KGGS 141615Z 20012G18KT 35/12 A2998 RMK A01 T03510116  RH  025%=      5-min Rain = 0
KGGS 141620Z 21013KT 35/12 A2998 RMK A01 T03520116  RH  025%=      5-min Rain = 0
KGGS 141625Z 20012KT 35/12 A2998 RMK A01 T03540115  RH  024%=      5-min Rain = 0
KGGS 141630Z 21012G18KT 36/12 A2998 RMK A01 T03580115  RH  024%=      5-min Rain = 0
KGGS 141635Z 21010G15KT 37/11 A2999 RMK A01 T03650113  RH  023%=      5-min Rain = 0
KGGS 141640Z 20008KT 37/12 A2999 RMK A01 T03660115  RH  023%=      5-min Rain = 0
KGGS 141645Z 23009G14KT 37/11 A2999 RMK A01 T03680113  RH  022%=      5-min Rain = 0
KGGS 141650Z 20010G17KT 36/11 A2999 RMK A01 T03630107  RH  022%=      5-min Rain = 0
KGGS 141655Z 22009G14KT 37/11 A2999 RMK A01 T03660109  RH  022%=      5-min Rain = 0
KGGS 141700Z 21008G13KT 37/11 A2999 RMK A01 T03680106  RH  021%=      5-min Rain = 0
KGGS 141705Z 19009G15KT 37/11 A2999 RMK A01 T03710106  RH  021%=      5-min Rain = 0
KGGS 141710Z 20008KT 38/11 A2999 RMK A01 T03800105  RH  020%=      5-min Rain = 0
KGGS 141715Z 22007KT 37/10 A2999 RMK A01 T03730103  RH  020%=      5-min Rain = 0
KGGS 141720Z 22008KT 38/10 A2998 RMK A01 T03790098  RH  019%=      5-min Rain = 0
KGGS 141725Z 21008KT 38/10 A2998 RMK A01 T03810102  RH  019%=      5-min Rain = 0
KGGS 141730Z 23008G14KT 39/10 A2998 RMK A01 T03910096  RH  018%=      5-min Rain = 0
KGGS 141735Z 21008G14KT 39/10 A2998 RMK A01 T03860095  RH  018%=      5-min Rain = 0
KGGS 141740Z 21008G13KT 39/10 A2997 RMK A01 T03880095  RH  018%=      5-min Rain = 0
KGGS 141745Z 19009KT 39/09 A2997 RMK A01 T03860091  RH  017%=      5-min Rain = 0
KGGS 141750Z 24007G13KT 38/09 A2997 RMK A01 T03820086  RH  017%=      5-min Rain = 0
KGGS 141755Z 25008G14KT 38/09 A2997 RMK A01 T03830085  RH  017%=      5-min Rain = 0
KGGS 141800Z 23006G13KT 39/09 A2997 RMK A01 T03890089  RH  017%=      5-min Rain = 0
KGGS 141805Z 25007G12KT 40/08 A2997 RMK A01 T03980084  RH  016%=      5-min Rain = 0
KGGS 141810Z 22007G13KT 40/08 A2996 RMK A01 T03980081  RH  015%=      5-min Rain = 0
KGGS 141815Z 23006G11KT 40/08 A2996 RMK A01 T04040081  RH  015%=      5-min Rain = 0
KGGS 141820Z 24009G14KT 40/08 A2996 RMK A01 T04040080  RH  015%=      5-min Rain = 0
KGGS 141825Z 24006KT 40/08 A2995 RMK A01 T04030077  RH  014%=      5-min Rain = 0
KGGS 141830Z 22009G14KT 41/08 A2995 RMK A01 T04090077  RH  014%=      5-min Rain = 0
KGGS 141835Z 21008G14KT 41/07 A2995 RMK A01 T04060074  RH  014%=      5-min Rain = 0
KGGS 141840Z 20008KT 41/07 A2995 RMK A01 T04080071  RH  013%=      5-min Rain = 0
KGGS 141845Z 25003KT 41/07 A2995 RMK A01 T04080072  RH  014%=      5-min Rain = 0
KGGS 141850Z 24008G15KT 41/07 A2994 RMK A01 T04120072  RH  013%=      5-min Rain = 0
KGGS 141855Z 25009G17KT 42/07 A2994 RMK A01 T04150068  RH  013%=      5-min Rain = 0
KGGS 141900Z 26004KT 41/07 A2994 RMK A01 T04130068  RH  013%=      5-min Rain = 0
KGGS 141905Z 23004G11KT 42/07 A2994 RMK A01 T04150070  RH  013%=      5-min Rain = 0
KGGS 141910Z 21009G16KT 42/07 A2994 RMK A01 T04170068  RH  013%=      5-min Rain = 0
KGGS 141915Z 21010G16KT 42/07 A2994 RMK A01 T04170066  RH  012%=      5-min Rain = 0
KGGS 141920Z 24010G16KT 42/07 A2993 RMK A01 T04180067  RH  012%=      5-min Rain = 0
KGGS 141925Z 22008G13KT 42/07 A2993 RMK A01 T04200067  RH  012%=      5-min Rain = 0
KGGS 141930Z 21007G12KT 42/07 A2993 RMK A01 T04160065  RH  012%=      5-min Rain = 0
KGGS 141935Z 24007G13KT 42/07 A2993 RMK A01 T04190067  RH  012%=      5-min Rain = 0
KGGS 141940Z 19008G14KT 42/07 A2992 RMK A01 T04190068  RH  012%=      5-min Rain = 0
KGGS 141945Z 24009G15KT 42/07 A2992 RMK A01 T04190067  RH  012%=      5-min Rain = 0
KGGS 141950Z 28004G10KT 42/06 A2992 RMK A01 T04150063  RH  012%=      5-min Rain = 0
KGGS 141955Z 22010G16KT 43/06 A2992 RMK A01 T04270057  RH  011%=      5-min Rain = 0
KGGS 142000Z 26011G17KT 42/05 A2991 RMK A01 T04240051  RH  011%=      5-min Rain = 0
KGGS 142005Z 27007G12KT 42/06 A2991 RMK A01 T04180055  RH  011%=      5-min Rain = 0
KGGS 142010Z 29006G11KT 42/06 A2991 RMK A01 T04170055  RH  011%=      5-min Rain = 0
KGGS 142015Z 33003KT 41/05 A299 RMK A01 T04110054  RH  012%=      5-min Rain = 0
KGGS 142020Z 26006G12KT 42/06 A299 RMK A01 T04150058  RH  012%=      5-min Rain = 0
KGGS 142025Z 26008G13KT 41/06 A299 RMK A01 T04130057  RH  012%=      5-min Rain = 0
KGGS 142030Z 29010KT 41/06 A299 RMK A01 T04080059  RH  012%=      5-min Rain = 0
KGGS 142035Z 29007G12KT 41/06 A2989 RMK A01 T04070058  RH  012%=      5-min Rain = 0
KGGS 142040Z 30008KT 40/06 A2989 RMK A01 T04030057  RH  012%=      5-min Rain = 0
KGGS 142045Z 28008KT 40/06 A2989 RMK A01 T04030058  RH  013%=      5-min Rain = 0
KGGS 142050Z 25010G18KT 40/06 A2989 RMK A01 T04040061  RH  013%=      5-min Rain = 0
KGGS 142055Z 26009G14KT 40/06 A2989 RMK A01 T04020063  RH  013%=      5-min Rain = 0
KGGS 142100Z 22011G16KT 40/07 A2989 RMK A01 T04000068  RH  014%=      5-min Rain = 0
KGGS 142105Z 22010KT 40/07 A2989 RMK A01 T03970071  RH  014%=      5-min Rain = 0
KGGS 142110Z 21011G16KT 39/08 A2989 RMK A01 T03930075  RH  015%=      5-min Rain = 0
KGGS 142115Z 21015G21KT 39/07 A2989 RMK A01 T03900072  RH  015%=      5-min Rain = 0
KGGS 142120Z 20015KT 39/07 A2989 RMK A01 T03880067  RH  014%=      5-min Rain = 0
KGGS 142125Z 19013G18KT 39/07 A2989 RMK A01 T03920066  RH  014%=      5-min Rain = 0
KGGS 142130Z 19014G20KT 39/07 A2989 RMK A01 T03920067  RH  014%=      5-min Rain = 0
KGGS 142135Z 19015G21KT 39/06 A2989 RMK A01 T03910055  RH  013%=      5-min Rain = 0
KGGS 142140Z 17011G16KT 39/05 A2989 RMK A01 T03930048  RH  012%=      5-min Rain = 0
KGGS 142145Z 16004KT 40/05 A2989 RMK A01 T03960053  RH  013%=      5-min Rain = 0
KGGS 142150Z 27003KT 40/06 A2989 RMK A01 T03990058  RH  013%=      5-min Rain = 0
KGGS 142155Z 10001KT 40/06 A2989 RMK A01 T03980060  RH  013%=      5-min Rain = 0
KGGS 142200Z 30004KT 40/06 A2988 RMK A01 T03980061  RH  013%=      5-min Rain = 0
KGGS 142205Z 35002KT 40/06 A2988 RMK A01 T04010062  RH  013%=      5-min Rain = 0
KGGS 142210Z 15002KT 41/06 A2987 RMK A01 T04110061  RH  012%=      5-min Rain = 0
KGGS 142215Z 12004G9KT 41/06 A2987 RMK A01 T04120062  RH  012%=      5-min Rain = 0
KGGS 142220Z 13005G10KT 42/06 A2987 RMK A01 T04150061  RH  012%=      5-min Rain = 0
KGGS 142225Z 15006KT 42/06 A2987 RMK A01 T04190061  RH  012%=      5-min Rain = 0
KGGS 142230Z 13003KT 42/06 A2987 RMK A01 T04210060  RH  012%=      5-min Rain = 0
KGGS 142235Z 18005KT 41/06 A2986 RMK A01 T04130057  RH  012%=      5-min Rain = 0
KGGS 142240Z 15004G9KT 41/06 A2986 RMK A01 T04130058  RH  012%=      5-min Rain = 0
KGGS 142245Z 12005KT 42/06 A2986 RMK A01 T04180060  RH  012%=      5-min Rain = 0
KGGS 142250Z 16003KT 42/06 A2987 RMK A01 T04200060  RH  012%=      5-min Rain = 0
KGGS 142255Z 21006G11KT 42/06 A2987 RMK A01 T04190055  RH  011%=      5-min Rain = 0
KGGS 142300Z 23006G11KT 42/05 A2987 RMK A01 T04200051  RH  011%=      5-min Rain = 0
KGGS 142305Z 31009G14KT 42/05 A2987 RMK A01 T04240051  RH  011%=      5-min Rain = 0
KGGS 142310Z 30007KT 42/05 A2987 RMK A01 T04200051  RH  011%=      5-min Rain = 0
KGGS 142315Z 28006G11KT 42/05 A2987 RMK A01 T04220051  RH  011%=      5-min Rain = 0
KGGS 142320Z 26010G17KT 42/05 A2987 RMK A01 T04210050  RH  011%=      5-min Rain = 0
KGGS 142325Z 24009G16KT 42/05 A2987 RMK A01 T04200049  RH  011%=      5-min Rain = 0
KGGS 142330Z 23010G15KT 42/05 A2987 RMK A01 T04160048  RH  011%=      5-min Rain = 0
KGGS 142335Z 24007G14KT 42/05 A2987 RMK A01 T04150048  RH  011%=      5-min Rain = 0
KGGS 142340Z 23010G16KT 42/05 A2986 RMK A01 T04160047  RH  011%=      5-min Rain = 0
KGGS 142345Z 22010G16KT 42/05 A2986 RMK A01 T04160048  RH  011%=      5-min Rain = 0
KGGS 142350Z 26009KT 42/05 A2986 RMK A01 T04170049  RH  011%=      5-min Rain = 0
KGGS 142355Z 24009G14KT 41/05 A2986 RMK A01 T04130047  RH  011%=      5-min Rain = 0
KGGS 150000Z 25007G14KT 41/05 A2986 RMK A01 T04120050  RH  011%=      5-min Rain = 0
KGGS 150005Z 23009G14KT 41/05 A2986 RMK A01 T04120051  RH  011%=      5-min Rain = 0
KGGS 150010Z 23009KT 41/05 A2987 RMK A01 T04120051  RH  011%=      5-min Rain = 0
KGGS 150015Z 21007KT 41/05 A2987 RMK A01 T04090051  RH  012%=      5-min Rain = 0
KGGS 150020Z 23006KT 41/05 A2987 RMK A01 T04100052  RH  012%=      5-min Rain = 0
KGGS 150025Z 24005KT 41/05 A2987 RMK A01 T04100053  RH  012%=      5-min Rain = 0
KGGS 150030Z 23006KT 41/05 A2987 RMK A01 T04100052  RH  012%=      5-min Rain = 0
KGGS 150035Z 22007KT 41/05 A2987 RMK A01 T04070052  RH  012%=      5-min Rain = 0
KGGS 150040Z 18005KT 41/05 A2988 RMK A01 T04050052  RH  012%=      5-min Rain = 0
KGGS 150045Z 11007KT 39/07 A2989 RMK A01 T03880067  RH  015%=      5-min Rain = 0
KGGS 150050Z 11004G9KT 38/07 A2989 RMK A01 T03770072  RH  016%=      5-min Rain = 0
KGGS 150055Z 10006KT 37/07 A2989 RMK A01 T03740072  RH  016%=      5-min Rain = 0
KGGS 150100Z 08005KT 37/07 A299 RMK A01 T03720073  RH  016%=      5-min Rain = 0
KGGS 150105Z 08005KT 37/07 A299 RMK A01 T03700072  RH  017%=      5-min Rain = 0
KGGS 150110Z 09004KT 37/07 A299 RMK A01 T03670073  RH  017%=      5-min Rain = 0
KGGS 150115Z 08004KT 37/07 A299 RMK A01 T03660071  RH  017%=      5-min Rain = 0
KGGS 150120Z 06004KT 36/07 A2991 RMK A01 T03640072  RH  017%=      5-min Rain = 0
KGGS 150125Z 05006KT 36/07 A2991 RMK A01 T03590073  RH  018%=      5-min Rain = 0
KGGS 150130Z 03008G15KT 36/07 A2992 RMK A01 T03570072  RH  018%=      5-min Rain = 0
KGGS 150135Z 04009KT 36/07 A2992 RMK A01 T03570074  RH  018%=      5-min Rain = 0
KGGS 150140Z 04009KT 35/08 A2992 RMK A01 T03540082  RH  019%=      5-min Rain = 0
KGGS 150145Z 05008KT 35/08 A2992 RMK A01 T03520084  RH  020%=      5-min Rain = 0
KGGS 150150Z 06008KT 35/09 A2993 RMK A01 T03500085  RH  020%=      5-min Rain = 0
KGGS 150155Z 05008G15KT 35/09 A2993 RMK A01 T03470087  RH  021%=      5-min Rain = 0
KGGS 150200Z 06010G15KT 35/09 A2993 RMK A01 T03450089  RH  022%=      5-min Rain = 0
KGGS 150205Z 06010G17KT 34/09 A2993 RMK A01 T03430089  RH  022%=      5-min Rain = 0
KGGS 150210Z 06011G16KT 34/09 A2993 RMK A01 T03390091  RH  022%=      5-min Rain = 0
KGGS 150215Z 06010G16KT 33/09 A2993 RMK A01 T03340093  RH  023%=      5-min Rain = 0
KGGS 150220Z 05010G16KT 33/09 A2993 RMK A01 T03310094  RH  024%=      5-min Rain = 0
KGGS 150225Z 06010KT 33/09 A2993 RMK A01 T03280094  RH  024%=      5-min Rain = 0
KGGS 150230Z 06009KT 33/10 A2993 RMK A01 T03250095  RH  025%=      5-min Rain = 0
KGGS 150235Z 05009KT 32/10 A2994 RMK A01 T03230095  RH  025%=      5-min Rain = 0
KGGS 150240Z 05008G13KT 32/10 A2994 RMK A01 T03210096  RH  026%=      5-min Rain = 0
KGGS 150245Z 04007G12KT 32/10 A2994 RMK A01 T03200096  RH  026%=      5-min Rain = 0
KGGS 150250Z 02008KT 32/10 A2994 RMK A01 T03180097  RH  026%=      5-min Rain = 0
KGGS 150255Z 06009G14KT 32/10 A2993 RMK A01 T03180097  RH  026%=      5-min Rain = 0
KGGS 150300Z 07009G14KT 32/10 A2993 RMK A01 T03190096  RH  026%=      5-min Rain = 0
KGGS 150305Z 06008G13KT 32/10 A2994 RMK A01 T03190095  RH  026%=      5-min Rain = 0
KGGS 150310Z 06009G14KT 32/09 A2994 RMK A01 T03200093  RH  025%=      5-min Rain = 0
KGGS 150315Z 05009G17KT 32/09 A2994 RMK A01 T03220091  RH  025%=      5-min Rain = 0
KGGS 150320Z 06010G16KT 32/09 A2994 RMK A01 T03230089  RH  024%=      5-min Rain = 0
KGGS 150325Z 06010KT 32/09 A2994 RMK A01 T03240088  RH  024%=      5-min Rain = 0
KGGS 150330Z 06009KT 33/09 A2994 RMK A01 T03250086  RH  024%=      5-min Rain = 0
KGGS 150335Z 04008KT 32/09 A2994 RMK A01 T03230086  RH  024%=      5-min Rain = 0
KGGS 150340Z 02009KT 32/09 A2995 RMK A01 T03220086  RH  024%=      5-min Rain = 0
KGGS 150345Z 03009KT 32/09 A2995 RMK A01 T03210088  RH  024%=      5-min Rain = 0
KGGS 150350Z 03010G15KT 32/09 A2995 RMK A01 T03220089  RH  024%=      5-min Rain = 0
KGGS 150355Z 02008G14KT 32/09 A2996 RMK A01 T03210091  RH  025%=      5-min Rain = 0
KGGS 150400Z 01008G13KT 32/09 A2997 RMK A01 T03190092  RH  025%=      5-min Rain = 0
KGGS 150405Z 03007KT 32/09 A2997 RMK A01 T03190092  RH  025%=      5-min Rain = 0
KGGS 150410Z 04006KT 32/09 A2997 RMK A01 T03180092  RH  026%=      5-min Rain = 0
KGGS 150415Z 06007G13KT 32/09 A2997 RMK A01 T03170093  RH  026%=      5-min Rain = 0
KGGS 150420Z 06007G12KT 32/09 A2996 RMK A01 T03170092  RH  026%=      5-min Rain = 0
KGGS 150425Z 05007KT 32/09 A2996 RMK A01 T03160091  RH  026%=      5-min Rain = 0
KGGS 150430Z 06006KT 31/09 A2996 RMK A01 T03140091  RH  026%=      5-min Rain = 0
KGGS 150435Z 05005KT 31/09 A2996 RMK A01 T03120091  RH  026%=      5-min Rain = 0
KGGS 150440Z 06005KT 31/09 A2996 RMK A01 T03120091  RH  026%=      5-min Rain = 0
KGGS 150445Z 05005KT 31/09 A2996 RMK A01 T03100090  RH  026%=      5-min Rain = 0
KGGS 150450Z 04004KT 31/09 A2996 RMK A01 T03080091  RH  027%=      5-min Rain = 0
KGGS 150455Z 06004KT 31/09 A2996 RMK A01 T03050091  RH  027%=      5-min Rain = 0

Page generated in 0.0106 seconds.